Terminal Aerodrome Forecast
Issued by NWS

Current Version | Previous Version | Graphics & Text | Print | Product List | Glossary On
Versions: 1 2 3 4 5 6 7 8 9 10 11 12 13 14 15 16 17 18 19 20 21
808
FTUS41 KILN 080538
TAFLCK
TAF
KLCK 080538Z 0806/0906 20006KT P6SM BKN070 OVC120
     FM081100 24005KT P6SM -SHRA SCT017 OVC028
     FM081600 26006KT P6SM BKN035 OVC100
     FM081900 27008KT P6SM -SHRA BKN025 OVC040
     FM090200 27010KT 5SM -SHSN BR SCT007 OVC012=

USA.gov is the U.S. government's official web portal to all federal, state and local government web resources and services.